Time;durP1;ratioP1;P1;durP2;ratioP2;P2;SDS_P1;SDS_P2;PMS_P1;PMS_P2;Temp;Humidity;BMP_temperature;BMP_pressure;BME280_temperature;BME280_humidity;BME280_pressure;Samples;Min_cycle;Max_cycle;Signal;HPM_P1;HPM_P2
2021/04/23 00:00:38;;;;;;;22.88;7.15;;;;;;;3.68;78.88;101919.97;5091104;28;20074;-73
2021/04/23 00:03:11;;;;;;;25.02;7.15;;;;;;;3.68;78.85;101925.25;5073536;28;20051;-73
2021/04/23 00:05:37;;;;;;;22.70;6.38;;;;;;;3.59;78.90;101925.78;5056629;28;20042;-73
2021/04/23 00:08:03;;;;;;;20.30;5.55;;;;;;;3.63;79.11;101932.59;5073208;28;20372;-74
2021/04/23 00:10:28;;;;;;;27.02;8.02;;;;;;;3.64;79.02;101928.16;5090843;28;20093;-73
2021/04/23 00:12:54;;;;;;;21.58;7.20;;;;;;;3.54;79.06;101920.75;5090988;28;20040;-73
2021/04/23 00:15:20;;;;;;;21.07;7.10;;;;;;;3.43;79.29;101924.94;5091102;28;20040;-73
2021/04/23 00:17:47;;;;;;;22.38;6.05;;;;;;;3.35;79.83;101923.59;5072937;28;20135;-73
2021/04/23 00:20:23;;;;;;;15.38;5.47;;;;;;;3.30;79.92;101920.38;5090971;28;20450;-73
2021/04/23 00:22:48;;;;;;;31.20;7.50;;;;;;;3.25;80.43;101916.28;5073143;28;20039;-73
2021/04/23 00:25:26;;;;;;;28.47;6.90;;;;;;;3.32;80.13;101918.47;5090868;28;20047;-73
2021/04/23 00:27:53;;;;;;;21.90;6.80;;;;;;;3.48;79.15;101917.59;5072736;28;20067;-74
2021/04/23 00:30:20;;;;;;;17.77;6.97;;;;;;;3.47;78.81;101921.19;5072969;28;20055;-73
2021/04/23 00:32:46;;;;;;;18.30;7.32;;;;;;;3.32;79.25;101915.81;5090888;28;20040;-73
2021/04/23 00:35:14;;;;;;;26.03;6.00;;;;;;;3.27;79.51;101920.53;5073103;28;20098;-73
2021/04/23 00:37:46;;;;;;;22.27;6.47;;;;;;;3.29;79.28;101908.09;5090462;28;20160;-73
2021/04/23 00:40:12;;;;;;;16.25;5.75;;;;;;;3.44;78.62;101916.06;5073166;28;20443;-74
2021/04/23 00:42:38;;;;;;;43.33;8.80;;;;;;;3.45;78.50;101907.22;5090671;28;20101;-73
2021/04/23 00:45:04;;;;;;;37.07;6.00;;;;;;;3.48;77.95;101904.41;5090821;28;20453;-73
2021/04/23 00:47:29;;;;;;;21.02;6.13;;;;;;;3.44;78.34;101905.50;5090516;28;20114;-73
2021/04/23 00:49:55;;;;;;;21.40;5.20;;;;;;;3.44;78.13;101897.59;5056052;28;20051;-73
2021/04/23 00:52:20;;;;;;;22.03;6.30;;;;;;;3.40;78.21;101898.72;5072925;28;20040;-73
2021/04/23 00:54:45;;;;;;;20.63;6.33;;;;;;;3.41;78.45;101911.81;5090639;28;20039;-73
2021/04/23 00:57:11;;;;;;;20.70;6.17;;;;;;;3.29;78.44;101902.81;5092508;28;20028;-73
2021/04/23 00:59:36;;;;;;;28.17;7.60;;;;;;;3.28;78.83;101911.69;5076265;28;20115;-73
2021/04/23 01:02:07;;;;;;;21.87;5.90;;;;;;;3.31;78.61;101908.03;5076251;28;20342;-73
2021/04/23 01:04:33;;;;;;;20.08;6.03;;;;;;;3.25;78.87;101917.13;5059469;28;20173;-73
2021/04/23 01:06:59;;;;;;;19.93;6.73;;;;;;;3.26;78.99;101923.28;5094024;28;20148;-73
2021/04/23 01:09:27;;;;;;;33.67;6.45;;;;;;;3.19;78.83;101914.84;5075933;28;20032;-73
2021/04/23 01:11:54;;;;;;;21.08;6.25;;;;;;;3.24;79.09;101920.72;5093833;28;20038;-73
2021/04/23 01:14:20;;;;;;;21.92;6.68;;;;;;;3.18;79.38;101921.03;5076195;28;20036;-73
2021/04/23 01:16:46;;;;;;;19.35;7.05;;;;;;;3.15;79.96;101918.59;5076083;28;20393;-73
2021/04/23 01:19:15;;;;;;;19.88;6.75;;;;;;;3.11;79.68;101919.69;5075552;28;20067;-73
2021/04/23 01:21:41;;;;;;;20.95;6.03;;;;;;;3.07;80.02;101918.16;5075763;28;20049;-73
2021/04/23 01:24:10;;;;;;;19.75;6.25;;;;;;;3.02;80.42;101925.47;5093765;28;20039;-73
2021/04/23 01:26:42;;;;;;;22.65;6.05;;;;;;;2.92;80.25;101914.56;5093701;28;20520;-72
2021/04/23 01:29:08;;;;;;;32.40;7.78;;;;;;;2.91;80.23;101918.16;5093432;28;20461;-73
2021/04/23 01:31:38;;;;;;;24.50;7.57;;;;;;;2.90;80.67;101927.00;5093470;28;20035;-72
2021/04/23 01:34:14;;;;;;;25.63;5.97;;;;;;;2.85;80.48;101918.47;5075773;28;20044;-72
2021/04/23 01:36:41;;;;;;;25.40;5.85;;;;;;;2.76;80.59;101922.47;5075671;28;20033;-72
2021/04/23 01:39:10;;;;;;;25.63;6.05;;;;;;;2.59;80.98;101919.91;5093239;28;20051;-73
2021/04/23 01:41:35;;;;;;;25.83;7.43;;;;;;;2.66;81.17;101937.09;5075527;28;20048;-72
2021/04/23 01:44:03;;;;;;;21.73;6.10;;;;;;;2.64;81.55;101920.50;5093321;28;20020;-72
2021/04/23 01:46:28;;;;;;;18.42;6.05;;;;;;;2.60;81.56;101935.66;5058960;28;20452;-73
2021/04/23 01:48:54;;;;;;;25.23;7.57;;;;;;;2.52;82.00;101928.13;5092968;28;20058;-72
2021/04/23 01:51:19;;;;;;;24.97;7.37;;;;;;;2.56;81.58;101917.44;5093327;28;20055;-72
2021/04/23 01:53:45;;;;;;;23.55;6.45;;;;;;;2.62;81.70;101919.72;5075471;28;20671;-72
2021/04/23 01:56:11;;;;;;;22.95;6.30;;;;;;;2.71;81.04;101917.44;5075421;28;20046;-73
2021/04/23 01:58:37;;;;;;;23.60;7.10;;;;;;;2.73;80.36;101923.50;5092804;28;20071;-73
2021/04/23 02:01:07;;;;;;;27.98;7.03;;;;;;;2.73;80.08;101925.28;5058557;28;20319;-73
2021/04/23 02:03:32;;;;;;;20.17;6.07;;;;;;;2.62;80.10;101927.63;5093018;28;20050;-73
2021/04/23 02:05:58;;;;;;;25.40;7.67;;;;;;;2.63;80.65;101939.91;5092980;28;20127;-74
2021/04/23 02:08:26;;;;;;;19.35;5.60;;;;;;;2.58;80.74;101934.03;5074350;28;20036;-74
2021/04/23 02:11:04;;;;;;;19.58;5.68;;;;;;;2.53;80.48;101943.03;5075017;28;20365;-72
2021/04/23 02:13:30;;;;;;;20.42;6.13;;;;;;;2.60;80.54;101945.31;5074927;28;20032;-72
2021/04/23 02:15:57;;;;;;;24.50;7.00;;;;;;;2.66;80.27;101939.72;5075022;28;20050;-72
2021/04/23 02:18:24;;;;;;;19.05;4.13;;;;;;;2.55;80.09;101940.28;5092388;28;20637;-73
2021/04/23 02:20:50;;;;;;;22.65;5.20;;;;;;;2.69;79.68;101942.19;5092622;28;20078;-73
2021/04/23 02:23:18;;;;;;;28.92;6.68;;;;;;;2.69;78.70;101935.16;5074794;28;20035;-72
2021/04/23 02:25:46;;;;;;;18.48;5.97;;;;;;;2.75;78.50;101944.50;5074698;28;20417;-72
2021/04/23 02:28:12;;;;;;;16.52;4.95;;;;;;;2.65;78.61;101935.41;5074501;28;20169;-72
2021/04/23 02:30:41;;;;;;;12.83;4.23;;;;;;;2.77;78.15;101934.72;5074735;28;20040;-72
2021/04/23 02:33:08;;;;;;;14.07;5.25;;;;;;;2.73;77.80;101935.81;5074544;28;20051;-72
2021/04/23 02:35:35;;;;;;;21.73;4.47;;;;;;;2.63;78.22;101940.75;5074661;28;20036;-73
2021/04/23 02:38:01;;;;;;;;;;;;;;;2.62;78.36;101932.91;5058108;28;20151;-73
2021/04/23 02:40:27;;;;;;;;;;;;;;;2.73;77.97;101946.38;5074898;28;20006;-73
2021/04/23 02:42:57;;;;;;;20.58;3.90;;;;;;;2.73;77.33;101941.09;5092100;28;19916;-73
2021/04/23 02:45:26;;;;;;;18.98;5.00;;;;;;;2.72;77.43;101944.69;5092466;28;20628;-73
2021/04/23 02:47:52;;;;;;;17.33;5.78;;;;;;;2.76;76.59;101940.94;5091759;28;20456;-72
2021/04/23 02:50:20;;;;;;;21.00;5.63;;;;;;;2.80;76.59;101950.38;5092233;28;20038;-72
2021/04/23 02:52:46;;;;;;;16.15;4.60;;;;;;;2.76;76.41;101943.56;5074293;28;20119;-73
2021/04/23 02:55:14;;;;;;;14.88;3.53;;;;;;;2.78;76.31;101943.50;5057511;28;20036;-73
2021/04/23 02:57:39;;;;;;;18.20;3.72;;;;;;;2.82;75.92;101948.53;5073852;28;20075;-73
2021/04/23 03:00:15;;;;;;;20.60;5.10;;;;;;;2.84;76.13;101945.81;5074261;28;20091;-72
2021/04/23 03:02:40;;;;;;;23.85;5.57;;;;;;;2.82;75.92;101945.03;5091844;28;20071;-73
2021/04/23 03:05:06;;;;;;;24.30;4.03;;;;;;;2.85;76.36;101945.72;5091975;28;20110;-73
2021/04/23 03:07:32;;;;;;;23.27;4.45;;;;;;;2.92;75.75;101947.06;5091490;28;20032;-73
2021/04/23 03:09:57;;;;;;;17.30;4.23;;;;;;;2.90;75.94;101946.34;5073893;28;20130;-72
2021/04/23 03:12:23;;;;;;;26.45;5.15;;;;;;;2.90;75.76;101948.97;5073946;28;20067;-73
2021/04/23 03:14:48;;;;;;;26.93;7.13;;;;;;;2.86;75.82;101955.34;5091721;28;20063;-73
2021/04/23 03:17:13;;;;;;;21.43;4.67;;;;;;;2.91;75.98;101949.81;5091688;28;20028;-72
2021/04/23 03:19:39;;;;;;;26.47;6.13;;;;;;;2.89;75.97;101952.53;5090645;28;20028;-72
2021/04/23 03:22:04;;;;;;;28.40;5.93;;;;;;;2.91;75.72;101949.81;5091442;28;20036;-72
2021/04/23 03:24:29;;;;;;;25.50;4.47;;;;;;;2.83;76.65;101952.00;5091494;28;20123;-72
2021/04/23 03:26:55;;;;;;;33.60;5.67;;;;;;;2.88;76.26;101966.66;5073831;28;20097;-72
2021/04/23 03:29:20;;;;;;;12.20;3.63;;;;;;;2.88;76.10;101958.75;5073423;28;20480;-72
2021/04/23 03:31:46;;;;;;;25.77;4.97;;;;;;;2.77;76.80;101958.47;5091480;28;20424;-72
2021/04/23 03:34:12;;;;;;;24.55;3.65;;;;;;;2.78;77.32;101969.88;5091444;28;20040;-73
2021/04/23 03:36:38;;;;;;;22.85;3.92;;;;;;;2.78;76.98;101977.78;5073673;28;20036;-73
2021/04/23 03:39:07;;;;;;;15.80;3.03;;;;;;;2.69;77.68;101973.84;5091125;28;20119;-72
2021/04/23 03:41:33;;;;;;;25.35;4.60;;;;;;;2.65;78.04;101982.88;5073602;28;20396;-73
2021/04/23 03:44:01;;;;;;;23.70;4.22;;;;;;;2.72;78.20;101981.59;5091192;28;20034;-73
2021/04/23 03:46:28;;;;;;;31.10;5.38;;;;;;;2.58;78.30;101978.84;5091301;28;20043;-73
2021/04/23 03:48:54;;;;;;;49.20;5.35;;;;;;;2.57;78.89;101985.03;5073188;28;20054;-73
2021/04/23 03:51:21;;;;;;;22.58;5.20;;;;;;;2.62;78.43;101990.91;5073421;28;20081;-74
2021/04/23 03:53:48;;;;;;;18.20;3.35;;;;;;;2.79;77.17;101982.97;5056737;28;20154;-74
2021/04/23 03:56:15;;;;;;;25.95;4.70;;;;;;;2.73;77.37;101988.56;5073395;28;20031;-73
2021/04/23 03:58:41;;;;;;;25.58;5.88;;;;;;;2.66;77.72;101993.31;5073106;28;20040;-73
2021/04/23 04:01:11;;;;;;;;;;;;;;;2.67;77.50;101988.88;5056961;28;20036;-73
2021/04/23 04:03:37;;;;;;;24.63;4.60;;;;;;;2.61;77.92;102000.63;5073415;28;19916;-73
2021/04/23 04:06:03;;;;;;;25.83;3.65;;;;;;;2.65;77.39;101998.69;5090980;28;20468;-73
2021/04/23 04:08:28;;;;;;;27.85;4.43;;;;;;;2.67;77.83;102004.72;5090839;28;20036;-73
2021/04/23 04:10:54;;;;;;;18.50;3.80;;;;;;;2.70;77.23;101999.28;5073229;28;20034;-73
2021/04/23 04:13:20;;;;;;;24.70;4.47;;;;;;;2.71;77.63;102004.47;5091015;28;20134;-73
2021/04/23 04:15:45;;;;;;;28.13;5.97;;;;;;;2.73;77.63;102004.41;5073324;28;20052;-73
2021/04/23 04:18:11;;;;;;;26.67;5.07;;;;;;;2.71;77.70;102008.91;5072984;28;20093;-73
2021/04/23 04:20:42;;;;;;;23.88;5.18;;;;;;;2.71;77.73;102019.44;5090977;28;20036;-73
2021/04/23 04:23:09;;;;;;;24.88;4.93;;;;;;;2.81;77.81;102022.44;5073173;28;20028;-73
2021/04/23 04:25:38;;;;;;;22.42;4.03;;;;;;;2.82;77.79;102019.75;5073213;28;20556;-73
2021/04/23 04:28:06;;;;;;;17.95;3.92;;;;;;;2.84;78.03;102023.16;5090616;28;20059;-73
2021/04/23 04:30:32;;;;;;;41.60;6.32;;;;;;;2.79;78.38;102029.63;5091562;28;20119;-73
2021/04/23 04:32:58;;;;;;;;;;;;;;;2.87;78.18;102025.63;5077103;28;20032;-73
2021/04/23 04:35:27;;;;;;;;;;;;;;;2.90;77.79;102027.22;5077176;28;19923;-73
2021/04/23 04:37:53;;;;;;;26.27;6.03;;;;;;;2.82;78.47;102032.94;5094174;28;19955;-73
2021/04/23 04:40:19;;;;;;;19.35;4.75;;;;;;;2.85;78.62;102038.03;5076548;28;20020;-73
2021/04/23 04:42:45;;;;;;;22.40;5.00;;;;;;;2.85;78.87;102039.81;5059735;28;20032;-73
2021/04/23 04:45:16;;;;;;;25.17;6.18;;;;;;;2.86;78.68;102039.75;5076538;28;20127;-73
2021/04/23 04:47:42;;;;;;;24.63;5.32;;;;;;;2.91;78.28;102035.06;5094063;28;20278;-73
2021/04/23 04:50:15;;;;;;;24.05;4.57;;;;;;;2.96;78.20;102043.59;5094370;28;20067;-73
2021/04/23 04:52:40;;;;;;;18.65;4.00;;;;;;;3.00;78.10;102044.31;5094470;28;20089;-73
2021/04/23 04:55:07;;;;;;;32.80;6.00;;;;;;;3.09;77.32;102050.84;5076457;28;20383;-73
2021/04/23 04:57:36;;;;;;;35.08;4.57;;;;;;;3.08;77.58;102055.28;5094022;28;20119;-73
2021/04/23 05:00:08;;;;;;;25.48;4.63;;;;;;;3.09;77.90;102064.03;5076061;28;20078;-72
2021/04/23 05:02:35;;;;;;;20.55;4.18;;;;;;;3.12;77.59;102070.03;5093714;28;20044;-73
2021/04/23 05:05:00;;;;;;;;;;;;;;;3.19;77.91;102065.28;5094136;28;20039;-73
2021/04/23 05:07:25;;;;;;;;;;;;;;;3.23;77.47;102072.09;5076100;28;19919;-72
2021/04/23 05:09:51;;;;;;;24.50;4.63;;;;;;;3.28;77.60;102079.78;5076039;28;19919;-74
2021/04/23 05:12:16;;;;;;;25.67;5.27;;;;;;;3.26;77.38;102071.94;5093851;28;20123;-73
2021/04/23 05:14:41;;;;;;;17.97;3.87;;;;;;;3.34;77.44;102072.34;5076034;28;20036;-74
2021/04/23 05:17:07;;;;;;;28.00;5.47;;;;;;;3.69;75.73;102069.56;5059300;28;20043;-74
2021/04/23 05:19:32;;;;;;;20.97;4.90;;;;;;;4.49;73.18;102072.91;5093644;28;20419;-74
2021/04/23 05:21:57;;;;;;;23.17;4.17;;;;;;;5.37;69.43;102079.03;5059118;28;20499;-74
2021/04/23 05:24:23;;;;;;;38.00;5.63;;;;;;;5.81;67.45;102072.72;5093682;28;20040;-74
2021/04/23 05:26:48;;;;;;;19.23;4.13;;;;;;;6.08;66.72;102087.81;5076073;28;20036;-74
2021/04/23 05:29:13;;;;;;;17.70;4.93;;;;;;;6.11;66.05;102090.25;5075550;28;20036;-74
2021/04/23 05:31:39;;;;;;;29.90;5.33;;;;;;;6.17;66.25;102094.31;5075921;28;20042;-74
2021/04/23 05:34:04;;;;;;;27.77;6.17;;;;;;;5.74;66.68;102108.50;5075838;28;20035;-74
2021/04/23 05:36:31;;;;;;;27.57;3.80;;;;;;;6.22;65.40;102101.00;5074981;28;20142;-74
2021/04/23 05:38:56;;;;;;;26.17;6.55;;;;;;;6.46;64.87;102114.47;5093262;28;20364;-73
2021/04/23 05:41:21;;;;;;;39.67;6.03;;;;;;;7.23;62.83;102106.53;5093307;28;20130;-74
2021/04/23 05:43:48;;;;;;;23.70;4.57;;;;;;;6.54;64.55;102108.63;5058001;28;20429;-74
2021/04/23 05:46:20;;;;;;;23.77;4.47;;;;;;;7.22;62.30;102104.84;5075555;28;20338;-74
2021/04/23 05:48:47;;;;;;;32.28;5.80;;;;;;;8.29;65.73;102108.69;5075286;28;20136;-74
2021/04/23 05:51:13;;;;;;;13.88;3.83;;;;;;;8.36;58.40;102113.44;5075399;28;20056;-74
2021/04/23 05:53:39;;;;;;;16.65;3.35;;;;;;;7.86;59.61;102115.34;5075436;28;20089;-73
2021/04/23 05:56:04;;;;;;;23.30;4.23;;;;;;;7.87;59.95;102111.75;5075354;28;20044;-73
2021/04/23 05:58:30;;;;;;;20.20;4.82;;;;;;;7.14;61.72;102108.06;5092717;28;20040;-73
2021/04/23 06:00:55;;;;;;;19.07;4.03;;;;;;;6.74;62.49;102100.19;5093094;28;20050;-74
2021/04/23 06:03:21;;;;;;;14.43;3.33;;;;;;;7.82;59.91;102109.41;5093192;28;20055;-73
2021/04/23 06:05:46;;;;;;;17.63;4.37;;;;;;;8.55;58.17;102110.28;5093158;28;20488;-73
2021/04/23 06:08:13;;;;;;;21.90;6.87;;;;;;;8.85;57.21;102117.75;5075032;28;20032;-74
2021/04/23 06:10:42;;;;;;;18.48;4.43;;;;;;;8.79;56.96;102115.53;5075171;28;20028;-73
2021/04/23 06:13:07;;;;;;;20.55;3.70;;;;;;;9.34;55.90;102120.22;5075272;28;20032;-73
2021/04/23 06:15:33;;;;;;;20.30;3.57;;;;;;;8.78;56.99;102129.84;5075135;28;20043;-73
2021/04/23 06:17:58;;;;;;;15.80;3.80;;;;;;;8.89;56.03;102129.00;5092441;28;20035;-73
2021/04/23 06:20:32;;;;;;;22.87;3.93;;;;;;;8.95;55.52;102130.38;5058422;28;20032;-73
2021/04/23 06:22:58;;;;;;;21.95;4.50;;;;;;;8.66;56.51;102136.06;5092606;28;20286;-73
2021/04/23 06:25:25;;;;;;;29.90;5.15;;;;;;;9.06;55.62;102125.03;5092476;28;20384;-73
2021/04/23 06:27:52;;;;;;;31.45;5.53;;;;;;;9.54;54.12;102134.66;5074373;28;20063;-73
2021/04/23 06:30:19;;;;;;;;;;;;;;;10.09;52.12;102139.06;5092940;28;20116;-73
2021/04/23 06:32:46;;;;;;;18.38;3.67;;;;;;;10.38;51.10;102137.66;5074288;28;19959;-73
2021/04/23 06:35:14;;;;;;;14.90;4.60;;;;;;;10.12;51.78;102148.63;5091985;28;20040;-73
2021/04/23 06:37:39;;;;;;;22.60;4.53;;;;;;;9.64;52.21;102149.78;5055591;28;20037;-73
2021/04/23 06:40:06;;;;;;;22.93;5.00;;;;;;;10.02;51.79;102158.34;5091847;28;20513;-73
2021/04/23 06:42:31;;;;;;;18.58;4.28;;;;;;;8.96;52.67;102156.03;5073931;28;20044;-73
2021/04/23 06:44:57;;;;;;;25.37;4.57;;;;;;;9.56;52.23;102168.22;5092340;28;20031;-73
2021/04/23 06:47:23;;;;;;;18.08;4.63;;;;;;;9.93;50.24;102154.63;5092004;28;20483;-72
2021/04/23 06:49:48;;;;;;;14.43;3.30;;;;;;;10.19;49.91;102167.66;5092047;28;20031;-72
2021/04/23 06:52:14;;;;;;;8.90;3.17;;;;;;;10.22;49.95;102159.41;5074382;28;20449;-72
2021/04/23 06:54:39;;;;;;;15.00;2.87;;;;;;;9.76;49.39;102157.78;5092025;28;20032;-72
2021/04/23 06:57:05;;;;;;;16.20;4.20;;;;;;;9.43;49.71;102162.97;5092128;28;20036;-72
2021/04/23 06:59:31;;;;;;;20.98;4.18;;;;;;;9.31;49.66;102171.94;5091760;28;20036;-72
2021/04/23 07:01:56;;;;;;;13.77;3.70;;;;;;;9.16;50.83;102167.81;5073424;28;20041;-72
2021/04/23 07:04:22;;;;;;;12.13;3.77;;;;;;;10.07;49.64;102167.69;5071846;28;20031;-72
2021/04/23 07:06:47;;;;;;;12.83;3.03;;;;;;;10.46;49.79;102168.06;5090288;28;20024;-72
2021/04/23 07:09:17;;;;;;;16.17;5.03;;;;;;;10.24;47.98;102163.63;5089810;28;20027;-72
2021/04/23 07:11:43;;;;;;;16.88;2.78;;;;;;;9.88;47.68;102173.66;5090058;28;20035;-72
2021/04/23 07:14:08;;;;;;;12.70;2.92;;;;;;;9.63;49.27;102174.75;5072257;28;20034;-72
2021/04/23 07:16:33;;;;;;;21.60;3.60;;;;;;;9.62;47.16;102178.41;5055573;28;20447;-72
2021/04/23 07:18:59;;;;;;;15.53;3.47;;;;;;;9.25;48.25;102186.59;5056448;28;20040;-72
2021/04/23 07:21:24;;;;;;;19.00;3.90;;;;;;;9.26;47.36;102182.97;5073852;28;20037;-72
2021/04/23 07:23:50;;;;;;;12.95;2.55;;;;;;;9.47;47.50;102187.59;5091530;28;20385;-72
2021/04/23 07:26:15;;;;;;;15.90;2.73;;;;;;;9.84;46.95;102192.69;5091732;28;20406;-72
2021/04/23 07:28:41;;;;;;;13.67;3.03;;;;;;;9.93;46.77;102186.63;5091340;28;20617;-72
2021/04/23 07:31:06;;;;;;;17.00;4.53;;;;;;;9.94;47.30;102198.97;5073818;28;20040;-73
2021/04/23 07:33:31;;;;;;;12.23;4.13;;;;;;;9.97;46.91;102201.41;5091574;28;20031;-72
2021/04/23 07:35:57;;;;;;;18.73;3.47;;;;;;;9.74;47.50;102200.59;5091518;28;20028;-72
2021/04/23 07:38:22;;;;;;;11.03;2.93;;;;;;;10.19;44.81;102199.69;5073358;28;20035;-73
2021/04/23 07:40:48;;;;;;;15.90;2.53;;;;;;;10.20;45.99;102206.72;5091417;28;20046;-72
2021/04/23 07:43:13;;;;;;;19.50;2.70;;;;;;;10.45;46.45;102203.78;5073537;28;20042;-73
2021/04/23 07:45:39;;;;;;;9.30;2.43;;;;;;;10.89;44.31;102206.41;5091205;28;20297;-73
2021/04/23 07:48:05;;;;;;;11.83;2.50;;;;;;;10.37;44.39;102208.03;5073267;28;20101;-72
2021/04/23 07:50:31;;;;;;;;;;;;;;;10.40;45.05;102215.81;5074146;28;20046;-73
2021/04/23 07:52:56;;;;;;;;;;;;;;;10.69;43.57;102208.06;5073922;28;19923;-73
2021/04/23 07:55:23;;;;;;;6.80;1.97;;;;;;;9.79;45.51;102211.72;5091033;28;19912;-73
2021/04/23 07:57:49;;;;;;;10.82;2.38;;;;;;;10.54;43.86;102216.38;5090979;28;20107;-72
2021/04/23 08:00:18;;;;;;;8.93;2.60;;;;;;;10.57;42.39;102223.28;5090376;28;20029;-73
2021/04/23 08:02:44;;;;;;;6.97;2.10;;;;;;;10.63;42.44;102211.22;5091145;28;20063;-72
2021/04/23 08:05:11;;;;;;;;;;;;;;;10.64;41.43;102211.09;5074294;28;20031;-72
2021/04/23 08:07:36;;;;;;;7.40;1.80;;;;;;;10.33;43.12;102218.13;5077263;28;20055;-73
2021/04/23 08:10:03;;;;;;;11.80;2.43;;;;;;;10.77;42.56;102205.59;5095134;28;20040;-72
2021/04/23 08:12:29;;;;;;;8.00;1.80;;;;;;;11.46;41.86;102220.28;5095046;28;20036;-73
2021/04/23 08:14:54;;;;;;;7.73;1.90;;;;;;;11.57;40.63;102212.19;5077384;28;20112;-73
2021/04/23 08:17:19;;;;;;;8.43;2.10;;;;;;;11.40;39.53;102218.97;5077374;28;20058;-73
2021/04/23 08:19:45;;;;;;;10.67;1.93;;;;;;;10.85;41.55;102216.47;5076879;28;20074;-73
2021/04/23 08:22:10;;;;;;;8.80;1.93;;;;;;;10.64;40.73;102220.94;5076962;28;20031;-73
2021/04/23 08:24:35;;;;;;;5.17;1.63;;;;;;;10.74;38.63;102224.53;5076537;28;20032;-73
2021/04/23 08:27:01;;;;;;;8.07;1.70;;;;;;;11.12;38.15;102233.84;5076663;28;20024;-72
2021/04/23 08:29:26;;;;;;;13.97;2.60;;;;;;;11.61;39.15;102229.63;5076442;28;20042;-72
2021/04/23 08:31:51;;;;;;;3.60;1.27;;;;;;;11.93;37.76;102226.00;5076587;28;20405;-72
2021/04/23 08:34:17;;;;;;;6.37;2.50;;;;;;;11.94;38.45;102230.38;5076515;28;20035;-73
2021/04/23 08:36:42;;;;;;;6.57;2.43;;;;;;;11.93;37.44;102226.84;5094387;28;20036;-72
2021/04/23 08:39:10;;;;;;;7.97;2.73;;;;;;;11.79;36.78;102225.34;5076678;28;20123;-72
2021/04/23 08:41:37;;;;;;;6.35;2.00;;;;;;;11.44;37.63;102238.28;5094631;28;20055;-73
2021/04/23 08:44:04;;;;;;;5.95;1.58;;;;;;;11.63;36.80;102238.38;5076821;28;20069;-72
2021/04/23 08:46:30;;;;;;;8.73;1.90;;;;;;;11.92;34.61;102237.72;5094106;28;20040;-72
2021/04/23 08:48:56;;;;;;;8.10;2.38;;;;;;;12.17;35.05;102239.88;5075910;28;20032;-72
2021/04/23 08:51:23;;;;;;;8.05;1.90;;;;;;;12.22;34.70;102245.69;5073989;28;20350;-72
2021/04/23 08:53:53;;;;;;;8.73;1.90;;;;;;;12.45;34.14;102240.09;5076107;28;20035;-72
2021/04/23 08:56:18;;;;;;;7.28;1.83;;;;;;;13.02;33.23;102243.81;5059360;28;20114;-72
2021/04/23 08:58:45;;;;;;;8.35;1.70;;;;;;;12.90;34.04;102255.66;5075999;28;20135;-73
2021/04/23 09:01:11;;;;;;;10.45;2.85;;;;;;;12.05;34.09;102265.06;5076008;28;20483;-73
2021/04/23 09:03:36;;;;;;;4.47;1.30;;;;;;;11.86;34.38;102264.97;5093896;28;20028;-73
2021/04/23 09:06:14;;;;;;;9.27;2.93;;;;;;;11.83;33.22;102258.91;5093958;28;20033;-73
2021/04/23 09:09:11;;;;;;;10.18;2.35;;;;;;;11.83;35.02;102260.75;5093865;28;20040;-73
2021/04/23 09:11:42;;;;;;;7.72;1.60;;;;;;;12.70;33.70;102264.69;5074883;28;20546;-73
2021/04/23 09:14:13;;;;;;;8.20;2.08;;;;;;;12.85;32.03;102265.94;5094017;28;20070;-73
2021/04/23 09:16:44;;;;;;;7.25;2.03;;;;;;;12.57;33.75;102265.81;5093313;28;20116;-73
2021/04/23 09:19:30;;;;;;;8.93;1.95;;;;;;;13.28;33.78;102264.72;5075587;28;20043;-73
2021/04/23 09:22:01;;;;;;;5.93;1.73;;;;;;;12.86;31.57;102262.28;5075982;28;20122;-73
2021/04/23 09:24:31;;;;;;;4.30;1.70;;;;;;;13.12;32.14;102273.28;5093466;28;20109;-73
2021/04/23 09:26:58;;;;;;;6.10;1.35;;;;;;;13.88;31.15;102267.94;5059098;28;20036;-73
2021/04/23 09:29:26;;;;;;;6.90;1.70;;;;;;;14.48;31.76;102269.34;5059135;28;20478;-73
2021/04/23 09:31:51;;;;;;;6.55;1.88;;;;;;;14.50;29.20;102270.03;5075685;28;20032;-73
2021/04/23 09:34:17;;;;;;;3.07;1.30;;;;;;;15.33;29.65;102262.56;5093633;28;20032;-73
2021/04/23 09:36:45;;;;;;;9.25;1.85;;;;;;;15.28;29.24;102266.75;5075853;28;20093;-73
2021/04/23 09:39:11;;;;;;;8.13;2.28;;;;;;;14.98;28.39;102260.78;5075457;28;20513;-73
2021/04/23 09:41:39;;;;;;;8.07;2.78;;;;;;;15.20;29.16;102254.91;5093474;28;20036;-73
2021/04/23 09:44:24;;;;;;;2.58;1.08;;;;;;;15.27;27.07;102254.31;5093414;28;20397;-73
2021/04/23 09:46:56;;;;;;;5.10;1.73;;;;;;;15.32;27.43;102252.81;5059148;28;20036;-73
2021/04/23 09:49:22;;;;;;;5.03;1.83;;;;;;;14.51;29.78;102263.66;5093121;28;20047;-73
2021/04/23 09:51:48;;;;;;;4.38;1.60;;;;;;;14.22;29.41;102264.66;5093133;28;20028;-73
2021/04/23 09:54:22;;;;;;;7.32;1.98;;;;;;;13.82;29.38;102263.16;5075401;28;20036;-73
2021/04/23 09:56:49;;;;;;;3.75;1.50;;;;;;;13.86;31.58;102264.56;5075315;28;20039;-73
2021/04/23 09:59:24;;;;;;;8.07;1.80;;;;;;;14.86;28.05;102264.72;5092791;28;20537;-73
2021/04/23 10:01:53;;;;;;;6.13;2.38;;;;;;;14.86;28.39;102267.41;5075188;28;20104;-73
2021/04/23 10:04:29;;;;;;;6.53;1.67;;;;;;;15.61;27.55;102263.25;5075173;28;20047;-73
2021/04/23 10:07:14;;;;;;;3.97;1.85;;;;;;;15.81;27.62;102266.63;5075187;28;20047;-73
2021/04/23 10:09:56;;;;;;;2.42;1.00;;;;;;;15.40;28.00;102262.78;5092604;28;20043;-73
2021/04/23 10:12:43;;;;;;;7.50;1.98;;;;;;;15.59;27.31;102262.59;5092777;28;20032;-73
2021/04/23 10:15:13;;;;;;;10.27;2.15;;;;;;;15.19;27.33;102252.38;5092883;28;20064;-73
2021/04/23 10:17:42;;;;;;;9.13;2.90;;;;;;;16.18;26.37;102265.47;5057920;28;20028;-74
2021/04/23 10:20:10;;;;;;;7.13;2.00;;;;;;;15.58;27.58;102257.38;5074926;28;20055;-74
2021/04/23 10:22:35;;;;;;;3.55;1.42;;;;;;;15.47;26.76;102269.22;5074719;28;20040;-74
2021/04/23 10:25:01;;;;;;;5.23;1.83;;;;;;;14.63;28.00;102267.00;5092511;28;20040;-74
2021/04/23 10:27:26;;;;;;;6.40;2.00;;;;;;;15.15;27.43;102262.63;5092447;28;20054;-73
2021/04/23 10:29:53;;;;;;;7.50;2.13;;;;;;;15.69;28.09;102264.34;5092128;28;20089;-73
2021/04/23 10:32:22;;;;;;;;;;;;;;;15.36;27.67;102269.53;5092901;28;20105;-73
2021/04/23 10:34:48;;;;;;;15.45;2.03;;;;;;;15.90;28.89;102267.53;5092241;28;19912;-73
2021/04/23 10:37:14;;;;;;;6.13;1.35;;;;;;;15.32;26.18;102268.97;5057893;28;20032;-74
2021/04/23 10:39:42;;;;;;;5.22;1.45;;;;;;;15.76;25.79;102276.19;5091896;28;20035;-73
2021/04/23 10:42:47;;;;;;;7.28;1.70;;;;;;;15.34;25.48;102266.97;5074404;28;20032;-73
2021/04/23 10:45:39;;;;;;;3.53;1.50;;;;;;;16.10;25.21;102262.72;5074279;28;20039;-73
2021/04/23 10:48:24;;;;;;;6.20;1.55;;;;;;;16.40;25.04;102264.00;5073961;28;20064;-74
2021/04/23 10:50:52;;;;;;;4.63;2.00;;;;;;;17.15;23.69;102268.53;5092104;28;20028;-73
2021/04/23 10:53:27;;;;;;;6.63;1.65;;;;;;;16.66;25.14;102258.50;5092180;28;20059;-73
2021/04/23 10:55:57;;;;;;;2.45;1.52;;;;;;;17.52;25.54;102264.44;5092105;28;20058;-73
2021/04/23 10:58:28;;;;;;;5.15;1.90;;;;;;;17.22;25.09;102264.13;5057244;28;20047;-74
2021/04/23 11:00:59;;;;;;;5.97;2.08;;;;;;;17.09;24.90;102270.06;5057484;28;20134;-74
2021/04/23 11:03:33;;;;;;;3.78;1.48;;;;;;;15.45;24.77;102268.53;5066099;28;20090;-74
2021/04/23 11:06:03;;;;;;;3.50;1.10;;;;;;;15.29;24.33;102266.59;5091850;28;20126;-74
2021/04/23 11:08:36;;;;;;;6.63;1.83;;;;;;;16.09;24.69;102266.44;5073878;28;20388;-73
2021/04/23 11:11:02;;;;;;;4.57;1.55;;;;;;;17.05;25.82;102265.16;5073193;28;20034;-74
2021/04/23 11:13:29;;;;;;;2.65;1.55;;;;;;;17.57;25.24;102266.63;5090127;28;20449;-74
2021/04/23 11:16:23;;;;;;;7.82;2.00;;;;;;;17.87;24.79;102265.06;5090073;28;20353;-74
2021/04/23 11:18:55;;;;;;;6.68;2.22;;;;;;;16.81;24.49;102261.44;5089838;28;20055;-74
2021/04/23 11:21:36;;;;;;;5.97;1.88;;;;;;;16.48;25.44;102265.03;5089793;28;20043;-74
2021/04/23 11:24:11;;;;;;;3.35;1.58;;;;;;;17.62;25.83;102254.28;5055380;28;20036;-74
2021/04/23 11:26:52;;;;;;;7.60;1.70;;;;;;;18.70;25.11;102272.59;5072291;28;20031;-74
2021/04/23 11:29:18;;;;;;;7.65;1.80;;;;;;;17.65;24.51;102269.31;5091201;28;20397;-75